sensor_id;sensor_type;location;lat;lon;timestamp;P1;durP1;ratioP1;P2;durP2;ratioP2
17638;SDS011;8938;53.546;9.954;2022-08-11T00:00:45;0.25;;;0.25;;
17638;SDS011;8938;53.546;9.954;2022-08-11T00:03:12;0.20;;;0.20;;
17638;SDS011;8938;53.546;9.954;2022-08-11T00:05:49;0.10;;;0.10;;
17638;SDS011;8938;53.546;9.954;2022-08-11T00:08:21;0.20;;;0.20;;
17638;SDS011;8938;53.546;9.954;2022-08-11T00:10:50;0.20;;;0.20;;
17638;SDS011;8938;53.546;9.954;2022-08-11T00:13:34;0.10;;;0.10;;
17638;SDS011;8938;53.546;9.954;2022-08-11T00:16:03;0.20;;;0.20;;
17638;SDS011;8938;53.546;9.954;2022-08-11T00:18:40;0.28;;;0.28;;
17638;SDS011;8938;53.546;9.954;2022-08-11T00:21:08;0.20;;;0.20;;
17638;SDS011;8938;53.546;9.954;2022-08-11T00:23:46;0.10;;;0.10;;
17638;SDS011;8938;53.546;9.954;2022-08-11T00:26:18;0.30;;;0.30;;
17638;SDS011;8938;53.546;9.954;2022-08-11T00:28:44;0.20;;;0.20;;
17638;SDS011;8938;53.546;9.954;2022-08-11T00:31:10;0.20;;;0.20;;
17638;SDS011;8938;53.546;9.954;2022-08-11T00:33:50;0.20;;;0.20;;
17638;SDS011;8938;53.546;9.954;2022-08-11T00:36:17;0.20;;;0.20;;
17638;SDS011;8938;53.546;9.954;2022-08-11T00:38:44;0.20;;;0.20;;
17638;SDS011;8938;53.546;9.954;2022-08-11T00:41:31;0.22;;;0.22;;
17638;SDS011;8938;53.546;9.954;2022-08-11T00:44:09;0.20;;;0.20;;
17638;SDS011;8938;53.546;9.954;2022-08-11T00:46:54;0.20;;;0.20;;
17638;SDS011;8938;53.546;9.954;2022-08-11T01:00:32;0.20;;;0.20;;
17638;SDS011;8938;53.546;9.954;2022-08-11T01:03:26;0.20;;;0.20;;
17638;SDS011;8938;53.546;9.954;2022-08-11T01:09:15;0.30;;;0.30;;
17638;SDS011;8938;53.546;9.954;2022-08-11T01:23:43;0.20;;;0.20;;
17638;SDS011;8938;53.546;9.954;2022-08-11T01:35:04;0.13;;;0.13;;
17638;SDS011;8938;53.546;9.954;2022-08-11T01:40:38;0.20;;;0.20;;
17638;SDS011;8938;53.546;9.954;2022-08-11T01:46:31;0.20;;;0.20;;
17638;SDS011;8938;53.546;9.954;2022-08-11T01:49:10;0.20;;;0.20;;
17638;SDS011;8938;53.546;9.954;2022-08-11T01:51:54;0.20;;;0.20;;
17638;SDS011;8938;53.546;9.954;2022-08-11T01:57:41;0.20;;;0.20;;
17638;SDS011;8938;53.546;9.954;2022-08-11T02:00:11;0.20;;;0.20;;
17638;SDS011;8938;53.546;9.954;2022-08-11T02:02:46;0.30;;;0.30;;
17638;SDS011;8938;53.546;9.954;2022-08-11T02:08:20;0.20;;;0.20;;
17638;SDS011;8938;53.546;9.954;2022-08-11T02:11:22;0.28;;;0.28;;
17638;SDS011;8938;53.546;9.954;2022-08-11T02:14:14;0.20;;;0.20;;
17638;SDS011;8938;53.546;9.954;2022-08-11T02:25:43;0.20;;;0.20;;
17638;SDS011;8938;53.546;9.954;2022-08-11T02:28:26;0.20;;;0.20;;
17638;SDS011;8938;53.546;9.954;2022-08-11T02:31:02;0.20;;;0.20;;
17638;SDS011;8938;53.546;9.954;2022-08-11T02:50:30;0.20;;;0.20;;
17638;SDS011;8938;53.546;9.954;2022-08-11T02:53:16;0.20;;;0.20;;
17638;SDS011;8938;53.546;9.954;2022-08-11T02:56:05;0.20;;;0.20;;
17638;SDS011;8938;53.546;9.954;2022-08-11T03:02:03;0.22;;;0.22;;
17638;SDS011;8938;53.546;9.954;2022-08-11T03:04:40;0.20;;;0.20;;
17638;SDS011;8938;53.546;9.954;2022-08-11T03:07:28;0.20;;;0.20;;
17638;SDS011;8938;53.546;9.954;2022-08-11T03:16:23;0.20;;;0.20;;
17638;SDS011;8938;53.546;9.954;2022-08-11T03:19:18;0.20;;;0.20;;
17638;SDS011;8938;53.546;9.954;2022-08-11T03:25:00;0.20;;;0.20;;
17638;SDS011;8938;53.546;9.954;2022-08-11T03:38:45;0.30;;;0.30;;
17638;SDS011;8938;53.546;9.954;2022-08-11T03:44:18;0.20;;;0.20;;
17638;SDS011;8938;53.546;9.954;2022-08-11T03:52:45;0.20;;;0.20;;
17638;SDS011;8938;53.546;9.954;2022-08-11T03:55:27;0.20;;;0.20;;
17638;SDS011;8938;53.546;9.954;2022-08-11T04:14:11;0.20;;;0.20;;
17638;SDS011;8938;53.546;9.954;2022-08-11T04:17:38;0.20;;;0.20;;
17638;SDS011;8938;53.546;9.954;2022-08-11T04:23:23;0.30;;;0.30;;
17638;SDS011;8938;53.546;9.954;2022-08-11T04:28:41;0.20;;;0.20;;
17638;SDS011;8938;53.546;9.954;2022-08-11T04:31:37;0.20;;;0.20;;
17638;SDS011;8938;53.546;9.954;2022-08-11T04:42:53;0.30;;;0.30;;
17638;SDS011;8938;53.546;9.954;2022-08-11T04:49:04;0.20;;;0.20;;
17638;SDS011;8938;53.546;9.954;2022-08-11T05:13:40;0.20;;;0.20;;
17638;SDS011;8938;53.546;9.954;2022-08-11T05:16:47;0.30;;;0.30;;
17638;SDS011;8938;53.546;9.954;2022-08-11T05:19:35;0.30;;;0.30;;
17638;SDS011;8938;53.546;9.954;2022-08-11T05:22:20;0.20;;;0.20;;
17638;SDS011;8938;53.546;9.954;2022-08-11T05:25:14;0.20;;;0.20;;
17638;SDS011;8938;53.546;9.954;2022-08-11T05:28:02;0.30;;;0.30;;
17638;SDS011;8938;53.546;9.954;2022-08-11T05:30:55;0.20;;;0.20;;
17638;SDS011;8938;53.546;9.954;2022-08-11T05:33:53;0.20;;;0.20;;
17638;SDS011;8938;53.546;9.954;2022-08-11T05:36:50;0.20;;;0.20;;
17638;SDS011;8938;53.546;9.954;2022-08-11T05:39:28;0.15;;;0.15;;
17638;SDS011;8938;53.546;9.954;2022-08-11T05:42:16;0.20;;;0.20;;
17638;SDS011;8938;53.546;9.954;2022-08-11T05:45:08;0.20;;;0.20;;
17638;SDS011;8938;53.546;9.954;2022-08-11T05:47:55;0.20;;;0.20;;
17638;SDS011;8938;53.546;9.954;2022-08-11T05:50:40;0.20;;;0.20;;
17638;SDS011;8938;53.546;9.954;2022-08-11T05:53:25;0.20;;;0.20;;
17638;SDS011;8938;53.546;9.954;2022-08-11T05:56:10;0.20;;;0.20;;
17638;SDS011;8938;53.546;9.954;2022-08-11T05:58:49;0.20;;;0.20;;
17638;SDS011;8938;53.546;9.954;2022-08-11T06:01:24;0.20;;;0.20;;
17638;SDS011;8938;53.546;9.954;2022-08-11T06:03:53;0.25;;;0.25;;
17638;SDS011;8938;53.546;9.954;2022-08-11T06:06:42;0.15;;;0.15;;
17638;SDS011;8938;53.546;9.954;2022-08-11T06:09:10;0.30;;;0.30;;
17638;SDS011;8938;53.546;9.954;2022-08-11T06:11:38;0.20;;;0.20;;
17638;SDS011;8938;53.546;9.954;2022-08-11T06:14:07;0.20;;;0.20;;
17638;SDS011;8938;53.546;9.954;2022-08-11T06:16:37;0.22;;;0.22;;
17638;SDS011;8938;53.546;9.954;2022-08-11T06:19:05;0.30;;;0.30;;
17638;SDS011;8938;53.546;9.954;2022-08-11T06:21:33;0.20;;;0.20;;
17638;SDS011;8938;53.546;9.954;2022-08-11T06:24:00;0.20;;;0.20;;
17638;SDS011;8938;53.546;9.954;2022-08-11T06:26:29;0.22;;;0.22;;
17638;SDS011;8938;53.546;9.954;2022-08-11T06:28:55;0.20;;;0.20;;
17638;SDS011;8938;53.546;9.954;2022-08-11T06:31:23;0.20;;;0.20;;
17638;SDS011;8938;53.546;9.954;2022-08-11T06:33:54;0.20;;;0.20;;
17638;SDS011;8938;53.546;9.954;2022-08-11T06:36:33;0.20;;;0.20;;
17638;SDS011;8938;53.546;9.954;2022-08-11T06:45:00;0.20;;;0.20;;
17638;SDS011;8938;53.546;9.954;2022-08-11T06:47:43;0.20;;;0.20;;
17638;SDS011;8938;53.546;9.954;2022-08-11T06:50:14;0.20;;;0.20;;
17638;SDS011;8938;53.546;9.954;2022-08-11T06:52:59;0.30;;;0.30;;
17638;SDS011;8938;53.546;9.954;2022-08-11T06:55:28;0.20;;;0.20;;
17638;SDS011;8938;53.546;9.954;2022-08-11T06:58:15;0.10;;;0.10;;
17638;SDS011;8938;53.546;9.954;2022-08-11T07:01:08;0.20;;;0.20;;
17638;SDS011;8938;53.546;9.954;2022-08-11T07:03:38;0.20;;;0.20;;
17638;SDS011;8938;53.546;9.954;2022-08-11T07:06:54;0.20;;;0.20;;
17638;SDS011;8938;53.546;9.954;2022-08-11T07:12:36;0.20;;;0.20;;
17638;SDS011;8938;53.546;9.954;2022-08-11T07:15:30;0.20;;;0.20;;
17638;SDS011;8938;53.546;9.954;2022-08-11T07:18:05;0.20;;;0.20;;
17638;SDS011;8938;53.546;9.954;2022-08-11T07:20:51;0.13;;;0.13;;
17638;SDS011;8938;53.546;9.954;2022-08-11T07:23:38;0.20;;;0.20;;
17638;SDS011;8938;53.546;9.954;2022-08-11T07:26:23;0.20;;;0.20;;
17638;SDS011;8938;53.546;9.954;2022-08-11T07:29:11;0.10;;;0.10;;
17638;SDS011;8938;53.546;9.954;2022-08-11T07:31:49;0.20;;;0.20;;
17638;SDS011;8938;53.546;9.954;2022-08-11T07:34:23;0.20;;;0.20;;
17638;SDS011;8938;53.546;9.954;2022-08-11T07:36:56;0.20;;;0.20;;
17638;SDS011;8938;53.546;9.954;2022-08-11T07:39:25;0.20;;;0.20;;
17638;SDS011;8938;53.546;9.954;2022-08-11T07:41:52;0.20;;;0.20;;
17638;SDS011;8938;53.546;9.954;2022-08-11T07:44:21;0.20;;;0.20;;
17638;SDS011;8938;53.546;9.954;2022-08-11T07:46:49;0.17;;;0.17;;
17638;SDS011;8938;53.546;9.954;2022-08-11T07:49:36;0.20;;;0.20;;
17638;SDS011;8938;53.546;9.954;2022-08-11T07:52:23;0.20;;;0.20;;
17638;SDS011;8938;53.546;9.954;2022-08-11T07:57:26;0.20;;;0.20;;
17638;SDS011;8938;53.546;9.954;2022-08-11T08:00:13;0.20;;;0.20;;
17638;SDS011;8938;53.546;9.954;2022-08-11T08:02:58;0.20;;;0.20;;
17638;SDS011;8938;53.546;9.954;2022-08-11T08:05:44;0.20;;;0.20;;
17638;SDS011;8938;53.546;9.954;2022-08-11T08:08:29;0.20;;;0.20;;
17638;SDS011;8938;53.546;9.954;2022-08-11T08:11:14;0.20;;;0.20;;
17638;SDS011;8938;53.546;9.954;2022-08-11T08:13:59;0.20;;;0.20;;
17638;SDS011;8938;53.546;9.954;2022-08-11T08:16:44;0.10;;;0.10;;
17638;SDS011;8938;53.546;9.954;2022-08-11T08:19:29;0.20;;;0.20;;
17638;SDS011;8938;53.546;9.954;2022-08-11T08:21:56;0.13;;;0.13;;
17638;SDS011;8938;53.546;9.954;2022-08-11T08:24:22;0.20;;;0.20;;
17638;SDS011;8938;53.546;9.954;2022-08-11T08:26:49;0.20;;;0.20;;
17638;SDS011;8938;53.546;9.954;2022-08-11T08:29:26;0.20;;;0.20;;
17638;SDS011;8938;53.546;9.954;2022-08-11T08:32:17;0.20;;;0.20;;
17638;SDS011;8938;53.546;9.954;2022-08-11T08:34:44;0.20;;;0.20;;
17638;SDS011;8938;53.546;9.954;2022-08-11T08:37:10;0.20;;;0.20;;
17638;SDS011;8938;53.546;9.954;2022-08-11T08:39:37;0.20;;;0.20;;
17638;SDS011;8938;53.546;9.954;2022-08-11T08:42:10;0.10;;;0.10;;
17638;SDS011;8938;53.546;9.954;2022-08-11T08:44:40;0.20;;;0.20;;
17638;SDS011;8938;53.546;9.954;2022-08-11T08:47:09;0.20;;;0.20;;
17638;SDS011;8938;53.546;9.954;2022-08-11T08:49:40;0.20;;;0.20;;
17638;SDS011;8938;53.546;9.954;2022-08-11T08:52:13;0.20;;;0.20;;
17638;SDS011;8938;53.546;9.954;2022-08-11T08:54:42;0.10;;;0.10;;
17638;SDS011;8938;53.546;9.954;2022-08-11T08:57:10;0.20;;;0.20;;
17638;SDS011;8938;53.546;9.954;2022-08-11T08:59:41;0.20;;;0.20;;
17638;SDS011;8938;53.546;9.954;2022-08-11T09:02:10;0.20;;;0.20;;
17638;SDS011;8938;53.546;9.954;2022-08-11T09:04:37;0.20;;;0.20;;
17638;SDS011;8938;53.546;9.954;2022-08-11T09:07:11;0.10;;;0.10;;
17638;SDS011;8938;53.546;9.954;2022-08-11T09:09:46;0.10;;;0.10;;
17638;SDS011;8938;53.546;9.954;2022-08-11T09:12:14;0.20;;;0.20;;
17638;SDS011;8938;53.546;9.954;2022-08-11T09:14:42;0.20;;;0.20;;
17638;SDS011;8938;53.546;9.954;2022-08-11T09:17:33;0.20;;;0.20;;
17638;SDS011;8938;53.546;9.954;2022-08-11T09:20:11;0.10;;;0.10;;
17638;SDS011;8938;53.546;9.954;2022-08-11T09:22:41;0.10;;;0.10;;
17638;SDS011;8938;53.546;9.954;2022-08-11T09:25:28;0.17;;;0.17;;
17638;SDS011;8938;53.546;9.954;2022-08-11T09:28:14;0.20;;;0.20;;
17638;SDS011;8938;53.546;9.954;2022-08-11T09:30:41;0.40;;;0.40;;
17638;SDS011;8938;53.546;9.954;2022-08-11T09:33:08;0.30;;;0.30;;
17638;SDS011;8938;53.546;9.954;2022-08-11T09:35:37;0.30;;;0.30;;
17638;SDS011;8938;53.546;9.954;2022-08-11T09:38:06;0.40;;;0.40;;
17638;SDS011;8938;53.546;9.954;2022-08-11T09:40:54;0.20;;;0.20;;
17638;SDS011;8938;53.546;9.954;2022-08-11T09:43:20;0.20;;;0.20;;
17638;SDS011;8938;53.546;9.954;2022-08-11T09:46:05;0.30;;;0.30;;
17638;SDS011;8938;53.546;9.954;2022-08-11T09:48:37;0.30;;;0.30;;
17638;SDS011;8938;53.546;9.954;2022-08-11T09:51:04;0.30;;;0.30;;
17638;SDS011;8938;53.546;9.954;2022-08-11T09:53:34;0.30;;;0.30;;
17638;SDS011;8938;53.546;9.954;2022-08-11T09:56:02;0.30;;;0.30;;
17638;SDS011;8938;53.546;9.954;2022-08-11T09:58:49;0.20;;;0.20;;
17638;SDS011;8938;53.546;9.954;2022-08-11T10:01:16;0.30;;;0.30;;
17638;SDS011;8938;53.546;9.954;2022-08-11T10:03:54;0.30;;;0.30;;
17638;SDS011;8938;53.546;9.954;2022-08-11T10:06:24;0.30;;;0.30;;
17638;SDS011;8938;53.546;9.954;2022-08-11T10:09:09;0.20;;;0.20;;
17638;SDS011;8938;53.546;9.954;2022-08-11T10:11:35;0.30;;;0.30;;
17638;SDS011;8938;53.546;9.954;2022-08-11T10:14:04;0.30;;;0.30;;
17638;SDS011;8938;53.546;9.954;2022-08-11T10:16:50;0.20;;;0.20;;
17638;SDS011;8938;53.546;9.954;2022-08-11T10:19:16;0.20;;;0.20;;
17638;SDS011;8938;53.546;9.954;2022-08-11T10:21:46;0.13;;;0.13;;
17638;SDS011;8938;53.546;9.954;2022-08-11T10:24:34;0.10;;;0.10;;
17638;SDS011;8938;53.546;9.954;2022-08-11T10:27:19;0.20;;;0.20;;
17638;SDS011;8938;53.546;9.954;2022-08-11T10:29:45;0.10;;;0.10;;
17638;SDS011;8938;53.546;9.954;2022-08-11T10:32:30;0.03;;;0.03;;
17638;SDS011;8938;53.546;9.954;2022-08-11T10:35:16;0.10;;;0.10;;
17638;SDS011;8938;53.546;9.954;2022-08-11T10:37:44;0.20;;;0.20;;
17638;SDS011;8938;53.546;9.954;2022-08-11T10:40:15;0.10;;;0.10;;
17638;SDS011;8938;53.546;9.954;2022-08-11T10:42:46;0.10;;;0.10;;
17638;SDS011;8938;53.546;9.954;2022-08-11T10:45:34;0.10;;;0.10;;
17638;SDS011;8938;53.546;9.954;2022-08-11T10:48:20;0.10;;;0.10;;
17638;SDS011;8938;53.546;9.954;2022-08-11T10:50:48;0.10;;;0.10;;
17638;SDS011;8938;53.546;9.954;2022-08-11T10:53:34;0.10;;;0.10;;
17638;SDS011;8938;53.546;9.954;2022-08-11T10:56:20;0.10;;;0.10;;
17638;SDS011;8938;53.546;9.954;2022-08-11T10:59:05;0.10;;;0.10;;
17638;SDS011;8938;53.546;9.954;2022-08-11T11:01:42;0.10;;;0.10;;
17638;SDS011;8938;53.546;9.954;2022-08-11T11:07:16;0.10;;;0.10;;
17638;SDS011;8938;53.546;9.954;2022-08-11T11:09:48;0.13;;;0.13;;
17638;SDS011;8938;53.546;9.954;2022-08-11T11:12:19;0.10;;;0.10;;
17638;SDS011;8938;53.546;9.954;2022-08-11T11:15:07;0.20;;;0.20;;
17638;SDS011;8938;53.546;9.954;2022-08-11T11:17:54;0.10;;;0.10;;
17638;SDS011;8938;53.546;9.954;2022-08-11T11:20:41;0.10;;;0.10;;
17638;SDS011;8938;53.546;9.954;2022-08-11T11:23:33;0.10;;;0.10;;
17638;SDS011;8938;53.546;9.954;2022-08-11T11:26:26;0.10;;;0.10;;
17638;SDS011;8938;53.546;9.954;2022-08-11T11:37:29;0.10;;;0.10;;
17638;SDS011;8938;53.546;9.954;2022-08-11T11:39:59;0.20;;;0.20;;
17638;SDS011;8938;53.546;9.954;2022-08-11T11:42:25;0.13;;;0.13;;
17638;SDS011;8938;53.546;9.954;2022-08-11T11:44:53;0.10;;;0.10;;
17638;SDS011;8938;53.546;9.954;2022-08-11T11:47:19;0.13;;;0.13;;
17638;SDS011;8938;53.546;9.954;2022-08-11T11:49:47;0.10;;;0.10;;
17638;SDS011;8938;53.546;9.954;2022-08-11T11:52:14;0.10;;;0.10;;
17638;SDS011;8938;53.546;9.954;2022-08-11T11:54:42;0.10;;;0.10;;
17638;SDS011;8938;53.546;9.954;2022-08-11T11:57:09;0.10;;;0.10;;
17638;SDS011;8938;53.546;9.954;2022-08-11T11:59:57;0.10;;;0.10;;
17638;SDS011;8938;53.546;9.954;2022-08-11T12:02:41;0.10;;;0.10;;
17638;SDS011;8938;53.546;9.954;2022-08-11T12:05:08;0.10;;;0.10;;
17638;SDS011;8938;53.546;9.954;2022-08-11T12:07:34;0.10;;;0.10;;
17638;SDS011;8938;53.546;9.954;2022-08-11T12:10:19;0.10;;;0.10;;
17638;SDS011;8938;53.546;9.954;2022-08-11T12:12:45;0.10;;;0.10;;
17638;SDS011;8938;53.546;9.954;2022-08-11T12:15:30;0.10;;;0.10;;
17638;SDS011;8938;53.546;9.954;2022-08-11T12:17:56;0.10;;;0.10;;
17638;SDS011;8938;53.546;9.954;2022-08-11T12:20:23;0.10;;;0.10;;
17638;SDS011;8938;53.546;9.954;2022-08-11T12:22:49;0.13;;;0.13;;
17638;SDS011;8938;53.546;9.954;2022-08-11T12:25:34;0.20;;;0.20;;
17638;SDS011;8938;53.546;9.954;2022-08-11T12:28:18;0.10;;;0.10;;
17638;SDS011;8938;53.546;9.954;2022-08-11T12:30:46;0.20;;;0.20;;
17638;SDS011;8938;53.546;9.954;2022-08-11T12:33:17;0.17;;;0.17;;
17638;SDS011;8938;53.546;9.954;2022-08-11T12:35:43;0.10;;;0.10;;
17638;SDS011;8938;53.546;9.954;2022-08-11T12:38:10;0.10;;;0.10;;
17638;SDS011;8938;53.546;9.954;2022-08-11T12:40:36;0.10;;;0.10;;
17638;SDS011;8938;53.546;9.954;2022-08-11T12:43:21;0.10;;;0.10;;
17638;SDS011;8938;53.546;9.954;2022-08-11T12:46:11;0.10;;;0.10;;
17638;SDS011;8938;53.546;9.954;2022-08-11T12:48:43;0.10;;;0.10;;
17638;SDS011;8938;53.546;9.954;2022-08-11T12:51:31;0.10;;;0.10;;
17638;SDS011;8938;53.546;9.954;2022-08-11T12:54:30;0.10;;;0.10;;
17638;SDS011;8938;53.546;9.954;2022-08-11T12:57:30;0.10;;;0.10;;
17638;SDS011;8938;53.546;9.954;2022-08-11T13:00:22;0.10;;;0.10;;
17638;SDS011;8938;53.546;9.954;2022-08-11T13:03:09;0.10;;;0.10;;
17638;SDS011;8938;53.546;9.954;2022-08-11T13:05:55;0.10;;;0.10;;
17638;SDS011;8938;53.546;9.954;2022-08-11T13:08:24;0.10;;;0.10;;
17638;SDS011;8938;53.546;9.954;2022-08-11T13:10:52;0.10;;;0.10;;
17638;SDS011;8938;53.546;9.954;2022-08-11T13:13:38;0.10;;;0.10;;
17638;SDS011;8938;53.546;9.954;2022-08-11T13:16:06;0.15;;;0.15;;
17638;SDS011;8938;53.546;9.954;2022-08-11T13:18:33;0.20;;;0.20;;
17638;SDS011;8938;53.546;9.954;2022-08-11T13:20:59;0.20;;;0.20;;
17638;SDS011;8938;53.546;9.954;2022-08-11T13:23:26;0.10;;;0.10;;
17638;SDS011;8938;53.546;9.954;2022-08-11T13:25:53;0.10;;;0.10;;
17638;SDS011;8938;53.546;9.954;2022-08-11T13:28:20;0.20;;;0.20;;
17638;SDS011;8938;53.546;9.954;2022-08-11T13:30:50;0.10;;;0.10;;
17638;SDS011;8938;53.546;9.954;2022-08-11T13:33:39;0.10;;;0.10;;
17638;SDS011;8938;53.546;9.954;2022-08-11T13:36:07;0.00;;;0.00;;
17638;SDS011;8938;53.546;9.954;2022-08-11T13:38:33;0.10;;;0.10;;
17638;SDS011;8938;53.546;9.954;2022-08-11T13:41:00;0.08;;;0.08;;
17638;SDS011;8938;53.546;9.954;2022-08-11T13:43:25;0.13;;;0.13;;
17638;SDS011;8938;53.546;9.954;2022-08-11T13:45:52;0.08;;;0.08;;
17638;SDS011;8938;53.546;9.954;2022-08-11T13:48:39;0.10;;;0.10;;
17638;SDS011;8938;53.546;9.954;2022-08-11T13:51:06;0.10;;;0.10;;
17638;SDS011;8938;53.546;9.954;2022-08-11T13:53:51;0.20;;;0.20;;
17638;SDS011;8938;53.546;9.954;2022-08-11T13:56:17;0.10;;;0.10;;
17638;SDS011;8938;53.546;9.954;2022-08-11T13:58:45;0.17;;;0.17;;
17638;SDS011;8938;53.546;9.954;2022-08-11T14:01:11;0.10;;;0.10;;
17638;SDS011;8938;53.546;9.954;2022-08-11T14:03:37;0.10;;;0.10;;
17638;SDS011;8938;53.546;9.954;2022-08-11T14:06:06;0.10;;;0.10;;
17638;SDS011;8938;53.546;9.954;2022-08-11T14:08:34;0.10;;;0.10;;
17638;SDS011;8938;53.546;9.954;2022-08-11T14:11:03;0.10;;;0.10;;
17638;SDS011;8938;53.546;9.954;2022-08-11T14:13:50;0.10;;;0.10;;
17638;SDS011;8938;53.546;9.954;2022-08-11T14:16:25;0.10;;;0.10;;
17638;SDS011;8938;53.546;9.954;2022-08-11T14:18:57;0.10;;;0.10;;
17638;SDS011;8938;53.546;9.954;2022-08-11T14:21:28;0.10;;;0.10;;
17638;SDS011;8938;53.546;9.954;2022-08-11T14:24:17;0.10;;;0.10;;
17638;SDS011;8938;53.546;9.954;2022-08-11T14:26:43;0.10;;;0.10;;
17638;SDS011;8938;53.546;9.954;2022-08-11T14:29:11;0.00;;;0.00;;
17638;SDS011;8938;53.546;9.954;2022-08-11T14:31:42;0.10;;;0.10;;
17638;SDS011;8938;53.546;9.954;2022-08-11T14:34:09;0.10;;;0.10;;
17638;SDS011;8938;53.546;9.954;2022-08-11T14:36:38;0.10;;;0.10;;
17638;SDS011;8938;53.546;9.954;2022-08-11T14:39:09;0.10;;;0.10;;
17638;SDS011;8938;53.546;9.954;2022-08-11T14:41:42;0.10;;;0.10;;
17638;SDS011;8938;53.546;9.954;2022-08-11T14:44:30;0.10;;;0.10;;
17638;SDS011;8938;53.546;9.954;2022-08-11T14:47:16;0.10;;;0.10;;
17638;SDS011;8938;53.546;9.954;2022-08-11T14:49:43;0.15;;;0.15;;
17638;SDS011;8938;53.546;9.954;2022-08-11T14:52:11;0.10;;;0.10;;
17638;SDS011;8938;53.546;9.954;2022-08-11T14:54:43;0.10;;;0.10;;
17638;SDS011;8938;53.546;9.954;2022-08-11T14:57:30;0.10;;;0.10;;
17638;SDS011;8938;53.546;9.954;2022-08-11T15:00:00;0.10;;;0.10;;
17638;SDS011;8938;53.546;9.954;2022-08-11T15:02:27;0.10;;;0.10;;
17638;SDS011;8938;53.546;9.954;2022-08-11T15:05:12;0.10;;;0.10;;
17638;SDS011;8938;53.546;9.954;2022-08-11T15:07:39;0.10;;;0.10;;
17638;SDS011;8938;53.546;9.954;2022-08-11T15:10:06;0.10;;;0.10;;
17638;SDS011;8938;53.546;9.954;2022-08-11T15:12:34;0.10;;;0.10;;
17638;SDS011;8938;53.546;9.954;2022-08-11T15:15:02;0.10;;;0.10;;
17638;SDS011;8938;53.546;9.954;2022-08-11T15:17:49;0.10;;;0.10;;
17638;SDS011;8938;53.546;9.954;2022-08-11T15:20:17;0.10;;;0.10;;
17638;SDS011;8938;53.546;9.954;2022-08-11T15:23:02;0.10;;;0.10;;
17638;SDS011;8938;53.546;9.954;2022-08-11T15:25:55;0.10;;;0.10;;
17638;SDS011;8938;53.546;9.954;2022-08-11T15:28:25;0.10;;;0.10;;
17638;SDS011;8938;53.546;9.954;2022-08-11T15:31:13;0.10;;;0.10;;
17638;SDS011;8938;53.546;9.954;2022-08-11T15:34:00;0.15;;;0.15;;
17638;SDS011;8938;53.546;9.954;2022-08-11T15:36:47;0.10;;;0.10;;
17638;SDS011;8938;53.546;9.954;2022-08-11T15:39:34;0.10;;;0.10;;
17638;SDS011;8938;53.546;9.954;2022-08-11T15:42:29;0.10;;;0.10;;
17638;SDS011;8938;53.546;9.954;2022-08-11T15:45:15;0.10;;;0.10;;
17638;SDS011;8938;53.546;9.954;2022-08-11T15:48:08;0.10;;;0.10;;
17638;SDS011;8938;53.546;9.954;2022-08-11T15:50:39;0.10;;;0.10;;
17638;SDS011;8938;53.546;9.954;2022-08-11T15:53:52;0.20;;;0.20;;
17638;SDS011;8938;53.546;9.954;2022-08-11T15:56:03;0.10;;;0.10;;
17638;SDS011;8938;53.546;9.954;2022-08-11T15:58:31;0.10;;;0.10;;
17638;SDS011;8938;53.546;9.954;2022-08-11T16:01:20;0.10;;;0.10;;
17638;SDS011;8938;53.546;9.954;2022-08-11T16:04:09;0.10;;;0.10;;
17638;SDS011;8938;53.546;9.954;2022-08-11T16:06:59;0.10;;;0.10;;
17638;SDS011;8938;53.546;9.954;2022-08-11T16:09:52;0.10;;;0.10;;
17638;SDS011;8938;53.546;9.954;2022-08-11T16:12:35;0.10;;;0.10;;
17638;SDS011;8938;53.546;9.954;2022-08-11T16:15:06;0.10;;;0.10;;
17638;SDS011;8938;53.546;9.954;2022-08-11T16:17:56;0.10;;;0.10;;
17638;SDS011;8938;53.546;9.954;2022-08-11T16:20:26;0.10;;;0.10;;
17638;SDS011;8938;53.546;9.954;2022-08-11T16:22:53;0.20;;;0.20;;
17638;SDS011;8938;53.546;9.954;2022-08-11T16:25:23;0.15;;;0.15;;
17638;SDS011;8938;53.546;9.954;2022-08-11T16:27:50;0.10;;;0.10;;
17638;SDS011;8938;53.546;9.954;2022-08-11T16:30:40;0.10;;;0.10;;
17638;SDS011;8938;53.546;9.954;2022-08-11T16:33:07;0.15;;;0.15;;
17638;SDS011;8938;53.546;9.954;2022-08-11T16:35:35;0.15;;;0.15;;
17638;SDS011;8938;53.546;9.954;2022-08-11T16:38:21;0.10;;;0.10;;
17638;SDS011;8938;53.546;9.954;2022-08-11T16:41:00;0.10;;;0.10;;
17638;SDS011;8938;53.546;9.954;2022-08-11T16:43:30;0.10;;;0.10;;
17638;SDS011;8938;53.546;9.954;2022-08-11T16:46:16;0.20;;;0.20;;
17638;SDS011;8938;53.546;9.954;2022-08-11T16:49:03;0.10;;;0.10;;
17638;SDS011;8938;53.546;9.954;2022-08-11T16:51:31;0.15;;;0.15;;
17638;SDS011;8938;53.546;9.954;2022-08-11T16:53:57;0.10;;;0.10;;
17638;SDS011;8938;53.546;9.954;2022-08-11T16:56:26;0.10;;;0.10;;
17638;SDS011;8938;53.546;9.954;2022-08-11T16:58:56;0.10;;;0.10;;
17638;SDS011;8938;53.546;9.954;2022-08-11T17:01:44;0.10;;;0.10;;
17638;SDS011;8938;53.546;9.954;2022-08-11T17:04:36;0.10;;;0.10;;
17638;SDS011;8938;53.546;9.954;2022-08-11T17:07:24;0.20;;;0.20;;
17638;SDS011;8938;53.546;9.954;2022-08-11T17:10:27;0.10;;;0.10;;
17638;SDS011;8938;53.546;9.954;2022-08-11T17:13:15;0.10;;;0.10;;
17638;SDS011;8938;53.546;9.954;2022-08-11T17:15:47;0.10;;;0.10;;
17638;SDS011;8938;53.546;9.954;2022-08-11T17:18:36;0.10;;;0.10;;
17638;SDS011;8938;53.546;9.954;2022-08-11T17:21:14;0.10;;;0.10;;
17638;SDS011;8938;53.546;9.954;2022-08-11T17:23:41;0.10;;;0.10;;
17638;SDS011;8938;53.546;9.954;2022-08-11T17:26:11;0.10;;;0.10;;
17638;SDS011;8938;53.546;9.954;2022-08-11T17:28:50;0.20;;;0.20;;
17638;SDS011;8938;53.546;9.954;2022-08-11T17:31:22;0.10;;;0.10;;
17638;SDS011;8938;53.546;9.954;2022-08-11T17:34:07;0.10;;;0.10;;
17638;SDS011;8938;53.546;9.954;2022-08-11T17:36:53;0.10;;;0.10;;
17638;SDS011;8938;53.546;9.954;2022-08-11T17:39:20;0.10;;;0.10;;
17638;SDS011;8938;53.546;9.954;2022-08-11T17:41:53;0.10;;;0.10;;
17638;SDS011;8938;53.546;9.954;2022-08-11T17:44:37;0.13;;;0.13;;
17638;SDS011;8938;53.546;9.954;2022-08-11T17:47:24;0.20;;;0.20;;
17638;SDS011;8938;53.546;9.954;2022-08-11T17:50:09;0.10;;;0.10;;
17638;SDS011;8938;53.546;9.954;2022-08-11T17:52:37;0.10;;;0.10;;
17638;SDS011;8938;53.546;9.954;2022-08-11T17:55:24;0.10;;;0.10;;
17638;SDS011;8938;53.546;9.954;2022-08-11T17:58:08;0.10;;;0.10;;
17638;SDS011;8938;53.546;9.954;2022-08-11T18:00:53;0.10;;;0.10;;
17638;SDS011;8938;53.546;9.954;2022-08-11T18:03:21;0.10;;;0.10;;
17638;SDS011;8938;53.546;9.954;2022-08-11T18:05:56;0.10;;;0.10;;
17638;SDS011;8938;53.546;9.954;2022-08-11T18:08:23;0.10;;;0.10;;
17638;SDS011;8938;53.546;9.954;2022-08-11T18:11:07;0.10;;;0.10;;
17638;SDS011;8938;53.546;9.954;2022-08-11T18:13:53;0.10;;;0.10;;
17638;SDS011;8938;53.546;9.954;2022-08-11T18:16:39;0.10;;;0.10;;
17638;SDS011;8938;53.546;9.954;2022-08-11T18:19:23;0.10;;;0.10;;
17638;SDS011;8938;53.546;9.954;2022-08-11T18:22:08;0.10;;;0.10;;
17638;SDS011;8938;53.546;9.954;2022-08-11T18:25:02;0.10;;;0.10;;
17638;SDS011;8938;53.546;9.954;2022-08-11T18:27:51;0.20;;;0.20;;
17638;SDS011;8938;53.546;9.954;2022-08-11T18:30:38;0.00;;;0.00;;
17638;SDS011;8938;53.546;9.954;2022-08-11T18:33:26;0.10;;;0.10;;
17638;SDS011;8938;53.546;9.954;2022-08-11T18:36:14;0.10;;;0.10;;
17638;SDS011;8938;53.546;9.954;2022-08-11T18:39:04;0.10;;;0.10;;
17638;SDS011;8938;53.546;9.954;2022-08-11T18:41:52;0.10;;;0.10;;
17638;SDS011;8938;53.546;9.954;2022-08-11T18:44:39;0.13;;;0.13;;
17638;SDS011;8938;53.546;9.954;2022-08-11T18:47:25;0.10;;;0.10;;
17638;SDS011;8938;53.546;9.954;2022-08-11T18:50:11;0.10;;;0.10;;
17638;SDS011;8938;53.546;9.954;2022-08-11T18:52:57;0.15;;;0.15;;
17638;SDS011;8938;53.546;9.954;2022-08-11T18:55:43;0.20;;;0.20;;
17638;SDS011;8938;53.546;9.954;2022-08-11T18:58:29;0.10;;;0.10;;
17638;SDS011;8938;53.546;9.954;2022-08-11T19:01:16;0.20;;;0.20;;
17638;SDS011;8938;53.546;9.954;2022-08-11T19:04:02;0.10;;;0.10;;
17638;SDS011;8938;53.546;9.954;2022-08-11T19:06:49;0.10;;;0.10;;
17638;SDS011;8938;53.546;9.954;2022-08-11T19:09:39;0.20;;;0.20;;